Time;durP1;ratioP1;P1;durP2;ratioP2;P2;SDS_P1;SDS_P2;PMS_P1;PMS_P2;Temp;Humidity;BMP_temperature;BMP_pressure;BME280_temperature;BME280_humidity;BME280_pressure;Samples;Min_cycle;Max_cycle;Signal;HPM_P1;HPM_P2
2023/09/28 00:13:13;;;;;;;9.98;4.60;;;;;;;18.90;100.00;101199.31;5048936;28;20528;-66
2023/09/28 00:16:01;;;;;;;8.35;4.60;;;;;;;18.86;100.00;101206.63;5036405;28;20052;-66
2023/09/28 00:18:49;;;;;;;8.50;4.43;;;;;;;18.83;100.00;101212.75;5067559;28;20055;-66
2023/09/28 00:21:37;;;;;;;8.35;3.88;;;;;;;18.80;100.00;101216.97;5043398;28;20048;-66
2023/09/28 00:24:25;;;;;;;8.75;4.07;;;;;;;18.80;100.00;101221.69;5057695;28;20127;-66
2023/09/28 00:27:13;;;;;;;10.15;4.38;;;;;;;18.80;100.00;101218.91;5070072;28;20040;-67
2023/09/28 00:30:03;;;;;;;10.35;4.70;;;;;;;18.76;100.00;101223.41;5058425;28;20183;-67
2023/09/28 00:32:52;;;;;;;6.47;3.88;;;;;;;18.76;100.00;101223.41;5057759;28;20194;-65
2023/09/28 00:35:40;;;;;;;11.88;4.45;;;;;;;18.74;100.00;101219.03;5071349;28;20408;-65
2023/09/28 00:38:28;;;;;;;8.23;4.20;;;;;;;18.74;100.00;101219.03;5070272;28;20098;-66
2023/09/28 00:41:16;;;;;;;6.57;4.00;;;;;;;18.72;100.00;101221.28;5072625;28;20507;-66
2023/09/28 00:44:05;;;;;;;8.35;4.18;;;;;;;18.71;100.00;101233.47;5057301;28;20051;-65
2023/09/28 00:46:53;;;;;;;8.05;4.35;;;;;;;18.69;100.00;101224.66;5071210;28;20047;-66
2023/09/28 00:49:43;;;;;;;8.40;4.40;;;;;;;18.68;100.00;101231.28;5054815;28;20041;-66
2023/09/28 00:52:33;;;;;;;9.68;4.40;;;;;;;18.65;100.00;101231.13;5037891;28;20048;-65
2023/09/28 00:55:21;;;;;;;9.48;4.15;;;;;;;18.62;100.00;101237.28;5014332;28;20643;-66
2023/09/28 00:58:12;;;;;;;7.63;3.95;;;;;;;18.59;100.00;101244.25;5059687;28;20056;-67
2023/09/28 01:01:03;;;;;;;7.88;4.57;;;;;;;18.57;100.00;101246.50;5044942;28;20083;-65
2023/09/28 01:03:52;;;;;;;8.30;4.38;;;;;;;18.54;100.00;101238.81;5043493;28;20413;-66
2023/09/28 01:06:41;;;;;;;10.05;4.80;;;;;;;18.51;100.00;101226.47;5028387;28;20106;-66
2023/09/28 01:09:31;;;;;;;7.60;4.18;;;;;;;18.48;100.00;101232.59;5045619;28;20113;-66
2023/09/28 01:12:20;;;;;;;8.35;4.32;;;;;;;18.47;100.00;101230.16;5041680;28;20425;-66
2023/09/28 01:15:11;;;;;;;8.32;3.83;;;;;;;18.47;100.00;101230.16;5051751;28;20049;-66
2023/09/28 01:18:00;;;;;;;8.45;4.63;;;;;;;18.45;100.00;101233.25;5049482;28;20046;-66
2023/09/28 01:20:51;;;;;;;7.22;4.30;;;;;;;18.45;100.00;101244.28;5058469;28;20045;-66
2023/09/28 01:23:40;;;;;;;8.05;4.60;;;;;;;18.42;100.00;101222.00;5058279;28;20048;-66
2023/09/28 01:26:30;;;;;;;9.90;4.55;;;;;;;18.39;100.00;101239.19;5044235;28;20086;-66
2023/09/28 01:29:18;;;;;;;14.25;4.47;;;;;;;18.36;100.00;101239.81;5066878;28;20044;-66
2023/09/28 01:32:06;;;;;;;8.70;4.03;;;;;;;18.32;100.00;101236.84;5088914;28;20038;-66
2023/09/28 01:34:54;;;;;;;9.43;4.15;;;;;;;18.30;100.00;101239.91;5059322;28;20063;-66
2023/09/28 01:38:03;;;;;;;7.03;4.20;;;;;;;18.27;100.00;101243.28;5077921;28;20555;-66
2023/09/28 01:40:52;;;;;;;9.63;4.07;;;;;;;18.25;100.00;101234.50;5081724;28;20052;-65
2023/09/28 01:43:40;;;;;;;8.80;4.35;;;;;;;18.22;100.00;101242.59;5068905;28;20052;-65
2023/09/28 01:46:29;;;;;;;7.68;4.15;;;;;;;18.19;100.00;101237.69;5070078;28;20450;-65
2023/09/28 01:49:17;;;;;;;9.75;4.15;;;;;;;18.16;100.00;101247.41;5097511;28;20051;-66
2023/09/28 01:52:05;;;;;;;21.73;4.95;;;;;;;18.12;100.00;101249.13;5097269;28;20491;-65
2023/09/28 01:54:53;;;;;;;8.32;4.47;;;;;;;18.10;100.00;101251.38;5098564;28;20052;-65
2023/09/28 01:57:41;;;;;;;7.03;4.10;;;;;;;18.10;100.00;101248.63;5070343;28;20129;-66
2023/09/28 02:00:30;;;;;;;8.57;4.05;;;;;;;18.09;100.00;101244.25;5063385;28;20040;-66
2023/09/28 02:03:18;;;;;;;7.15;3.78;;;;;;;18.07;100.00;101252.81;5078496;28;20044;-66
2023/09/28 02:06:06;;;;;;;6.65;4.00;;;;;;;18.06;100.00;101261.38;5048038;28;20488;-66
2023/09/28 02:08:54;;;;;;;7.25;4.13;;;;;;;18.06;100.00;101262.22;5080639;28;20047;-66
2023/09/28 02:11:43;;;;;;;8.50;4.53;;;;;;;18.05;100.00;101268.84;5093570;28;20131;-67
2023/09/28 02:14:32;;;;;;;9.45;4.53;;;;;;;18.01;100.00;101273.34;5078988;28;20554;-66
2023/09/28 02:17:20;;;;;;;8.85;4.35;;;;;;;17.97;100.00;101275.09;5095375;28;20051;-66
2023/09/28 02:20:10;;;;;;;6.28;3.83;;;;;;;17.95;100.00;101284.81;5094554;28;20052;-66
2023/09/28 02:22:58;;;;;;;7.75;4.18;;;;;;;17.94;100.00;101285.91;5064242;28;20129;-65
2023/09/28 02:25:46;;;;;;;8.57;4.10;;;;;;;17.93;100.00;101281.53;5073926;28;20044;-66
2023/09/28 02:28:34;;;;;;;9.63;4.28;;;;;;;17.90;100.00;101276.63;5081099;28;20554;-66
2023/09/28 02:31:24;;;;;;;9.10;4.25;;;;;;;17.88;100.00;101279.69;5094177;28;20044;-67
2023/09/28 02:34:12;;;;;;;7.10;4.32;;;;;;;17.86;100.00;101282.75;5092967;28;20129;-66
2023/09/28 02:37:03;;;;;;;8.63;4.10;;;;;;;17.85;100.00;101286.63;5079108;28;20411;-65
2023/09/28 02:39:51;;;;;;;9.88;4.65;;;;;;;17.86;100.00;101288.25;5075135;28;20058;-66
2023/09/28 02:42:40;;;;;;;8.23;4.18;;;;;;;17.84;100.00;101281.41;5074432;28;20129;-65
2023/09/28 02:45:28;;;;;;;8.93;4.40;;;;;;;17.80;100.00;101280.38;5059223;28;20043;-66
2023/09/28 02:48:16;;;;;;;9.82;4.35;;;;;;;17.79;100.00;101281.50;5085046;28;20127;-66
2023/09/28 02:51:06;;;;;;;8.38;3.75;;;;;;;17.76;100.00;101285.69;5078185;28;20487;-65
2023/09/28 02:53:54;;;;;;;10.60;4.63;;;;;;;17.74;100.00;101287.91;5066199;28;20040;-67
2023/09/28 02:56:42;;;;;;;8.00;4.28;;;;;;;17.76;100.00;101293.94;5079592;28;20499;-66
2023/09/28 02:59:31;;;;;;;7.88;4.65;;;;;;;17.72;100.00;101284.63;5093157;28;20083;-66
2023/09/28 03:02:20;;;;;;;8.40;4.22;;;;;;;17.68;100.00;101292.72;5092470;28;20109;-65
2023/09/28 03:05:08;;;;;;;8.40;4.70;;;;;;;17.66;100.00;101286.69;5078792;28;20044;-65
2023/09/28 03:07:58;;;;;;;12.40;4.57;;;;;;;17.66;100.00;101283.13;5079458;28;20496;-66
2023/09/28 03:10:47;;;;;;;7.00;3.90;;;;;;;17.65;100.00;101287.81;5064827;28;20496;-66
2023/09/28 03:13:35;;;;;;;7.50;4.30;;;;;;;17.67;100.00;101296.56;5057180;28;20139;-68
2023/09/28 03:16:23;;;;;;;9.18;4.13;;;;;;;17.68;100.00;101298.22;5062433;28;20071;-66
2023/09/28 03:19:11;;;;;;;8.38;4.18;;;;;;;17.68;100.00;101302.94;5092301;28;20055;-66
2023/09/28 03:21:59;;;;;;;8.18;4.15;;;;;;;17.68;100.00;101302.94;5077237;28;20047;-66
2023/09/28 03:24:47;;;;;;;9.73;4.10;;;;;;;17.65;100.00;101309.03;5074839;28;20040;-66
2023/09/28 03:27:36;;;;;;;10.45;4.38;;;;;;;17.64;100.00;101313.72;5092722;28;20174;-66
2023/09/28 03:30:25;;;;;;;6.32;3.67;;;;;;;17.64;100.00;101308.22;5065483;28;20185;-66
2023/09/28 03:33:13;;;;;;;7.82;4.07;;;;;;;17.65;100.00;101307.13;5091820;28;20050;-66
2023/09/28 03:36:01;;;;;;;7.47;3.90;;;;;;;17.66;100.00;101318.94;5093965;28;20048;-66
2023/09/28 03:38:50;;;;;;;11.52;4.45;;;;;;;17.65;100.00;101315.38;5091230;28;20137;-66
2023/09/28 03:41:38;;;;;;;7.28;4.10;;;;;;;17.63;100.00;101323.13;5078652;28;20530;-65
2023/09/28 03:44:26;;;;;;;7.70;4.22;;;;;;;17.63;100.00;101330.56;5091482;28;20100;-66
2023/09/28 03:47:14;;;;;;;9.07;4.10;;;;;;;17.63;100.00;101336.91;5092585;28;20484;-66
2023/09/28 03:50:06;;;;;;;9.77;4.10;;;;;;;17.61;100.00;101346.59;5092531;28;20055;-67
2023/09/28 03:52:54;;;;;;;9.02;4.35;;;;;;;17.60;100.00;101350.47;5078967;28;20052;-67
2023/09/28 03:55:46;;;;;;;10.10;4.90;;;;;;;17.61;100.00;101360.38;5091445;28;20472;-66
2023/09/28 03:58:34;;;;;;;8.07;4.38;;;;;;;17.61;100.00;101357.63;5085542;28;20039;-65
2023/09/28 04:01:22;;;;;;;9.80;4.00;;;;;;;17.64;100.00;101357.00;5090566;28;20578;-66
2023/09/28 04:04:10;;;;;;;9.63;4.50;;;;;;;17.65;100.00;101366.91;5062795;28;20044;-67
2023/09/28 04:06:58;;;;;;;8.60;4.38;;;;;;;17.66;100.00;101363.03;5078922;28;20063;-65
2023/09/28 04:09:46;;;;;;;9.82;4.22;;;;;;;17.65;100.00;101358.63;5076495;28;20452;-66
2023/09/28 04:12:34;;;;;;;8.93;4.43;;;;;;;17.66;100.00;101357.53;5063839;28;20122;-66
2023/09/28 04:15:22;;;;;;;14.65;4.38;;;;;;;17.67;100.00;101356.41;5091140;28;20047;-67
2023/09/28 04:18:11;;;;;;;10.05;4.65;;;;;;;17.65;100.00;101356.72;5090188;28;20526;-66
2023/09/28 04:20:59;;;;;;;9.18;4.50;;;;;;;17.64;100.00;101355.06;5080299;28;20044;-66
2023/09/28 04:23:47;;;;;;;10.80;4.63;;;;;;;17.61;100.00;101354.88;5091586;28;20044;-66
2023/09/28 04:26:35;;;;;;;8.00;4.20;;;;;;;17.60;100.00;101347.69;5062925;28;20052;-65
2023/09/28 04:29:24;;;;;;;8.95;4.53;;;;;;;17.59;100.00;101360.66;5091767;28;20115;-66
2023/09/28 04:32:12;;;;;;;8.95;4.82;;;;;;;17.60;100.00;101350.47;5092248;28;20078;-67
2023/09/28 04:35:00;;;;;;;10.52;4.68;;;;;;;17.62;100.00;101360.06;5091711;28;20052;-66
2023/09/28 04:37:50;;;;;;;11.40;5.07;;;;;;;17.63;100.00;101352.59;5088056;28;20307;-65
2023/09/28 04:40:38;;;;;;;7.88;4.43;;;;;;;17.59;100.00;101343.31;5076112;28;20044;-66
2023/09/28 04:43:26;;;;;;;11.25;4.93;;;;;;;17.57;100.00;101364.84;5076997;28;20134;-66
2023/09/28 04:46:14;;;;;;;10.35;4.72;;;;;;;17.52;100.00;101370.44;5075963;28;20040;-66
2023/09/28 04:49:02;;;;;;;10.20;4.88;;;;;;;17.50;100.00;101373.50;5091726;28;20054;-66
2023/09/28 04:51:51;;;;;;;10.75;4.88;;;;;;;17.51;100.00;101371.56;5078306;28;20044;-66
2023/09/28 04:54:39;;;;;;;7.72;4.38;;;;;;;17.53;100.00;101366.56;5091271;28;20052;-66
2023/09/28 04:57:27;;;;;;;7.57;4.32;;;;;;;17.54;100.00;101373.72;5072423;28;20060;-66
2023/09/28 05:00:16;;;;;;;9.07;4.82;;;;;;;17.54;100.00;101373.72;5071233;28;20615;-64
2023/09/28 05:03:04;;;;;;;8.07;4.50;;;;;;;17.55;100.00;101373.41;5071755;28;20049;-66
2023/09/28 05:05:52;;;;;;;8.88;4.85;;;;;;;17.52;100.00;101390.56;5076299;28;20133;-66
2023/09/28 05:08:40;;;;;;;7.82;4.32;;;;;;;17.52;100.00;101398.00;5090863;28;20058;-66
2023/09/28 05:11:32;;;;;;;11.18;4.65;;;;;;;17.51;100.00;101404.63;5077866;28;20048;-66
2023/09/28 05:14:24;;;;;;;9.35;4.50;;;;;;;17.50;100.00;101403.00;5090449;28;20083;-66
2023/09/28 05:17:13;;;;;;;8.55;4.65;;;;;;;17.49;100.00;101412.38;5056756;28;20092;-66
2023/09/28 05:20:03;;;;;;;10.98;4.97;;;;;;;17.49;100.00;101415.16;5072206;28;20045;-66
2023/09/28 05:22:51;;;;;;;11.50;5.00;;;;;;;17.48;100.00;101424.50;5083242;28;20419;-66
2023/09/28 05:25:39;;;;;;;9.32;5.03;;;;;;;17.46;100.00;101427.56;5090902;28;20177;-66
2023/09/28 05:28:27;;;;;;;9.95;4.90;;;;;;;17.44;100.00;101425.13;5095753;28;20396;-66
2023/09/28 05:31:28;;;;;;;10.02;4.80;;;;;;;17.45;100.00;101428.69;5083116;28;20040;-66
2023/09/28 05:34:17;;;;;;;10.05;4.18;;;;;;;17.43;100.00;101431.72;5090293;28;20063;-66
2023/09/28 05:37:05;;;;;;;11.40;5.63;;;;;;;17.43;100.00;101440.00;5056674;28;20057;-66
2023/09/28 05:39:53;;;;;;;12.45;5.53;;;;;;;17.42;100.00;101438.38;5072051;28;20052;-66
2023/09/28 05:42:42;;;;;;;9.52;5.30;;;;;;;17.41;100.00;101446.91;5075366;28;20071;-66
2023/09/28 05:45:32;;;;;;;10.93;5.22;;;;;;;17.40;100.00;101439.78;5066319;28;20529;-65
2023/09/28 05:48:20;;;;;;;10.48;5.22;;;;;;;17.38;100.00;101453.84;5081066;28;20494;-66
2023/09/28 05:51:08;;;;;;;11.95;5.60;;;;;;;17.37;100.00;101449.47;5095777;28;20080;-67
2023/09/28 05:53:56;;;;;;;10.63;5.38;;;;;;;17.33;100.00;101456.69;5093203;28;20474;-66
2023/09/28 05:56:44;;;;;;;14.13;6.05;;;;;;;17.31;100.00;101464.41;4376550;28;10000457;-67
2023/09/28 05:59:32;;;;;;;14.50;6.30;;;;;;;17.29;100.00;101463.91;5076027;28;20435;-67
2023/09/28 06:02:20;;;;;;;15.40;6.18;;;;;;;17.26;100.00;101464.50;5091295;28;20044;-67
2023/09/28 06:05:11;;;;;;;14.43;5.90;;;;;;;17.27;100.00;101479.94;5091568;28;20432;-66
2023/09/28 06:08:00;;;;;;;11.13;5.38;;;;;;;17.28;100.00;101491.75;5063222;28;20058;-66
2023/09/28 06:10:48;;;;;;;16.25;6.22;;;;;;;17.29;100.00;101499.69;5089985;28;20048;-66
2023/09/28 06:13:53;;;;;;;10.50;4.65;;;;;;;17.31;100.00;101500.22;5086250;28;20145;-66
2023/09/28 06:16:54;;;;;;;13.02;5.15;;;;;;;17.31;100.00;101496.66;5082078;28;20605;-66
2023/09/28 06:19:42;;;;;;;12.35;5.20;;;;;;;17.32;100.00;101487.28;5071602;28;20048;-67
2023/09/28 06:22:44;;;;;;;12.20;5.68;;;;;;;17.32;100.00;101488.13;5077885;28;20048;-66
2023/09/28 06:25:32;;;;;;;12.30;5.38;;;;;;;17.32;100.00;101485.34;5061795;28;20064;-67
2023/09/28 06:28:22;;;;;;;10.10;4.40;;;;;;;17.32;100.00;101482.59;5088338;28;20072;-66
2023/09/28 06:31:11;;;;;;;12.20;5.72;;;;;;;17.32;100.00;101476.25;5091118;28;20064;-66
2023/09/28 06:33:59;;;;;;;12.05;5.57;;;;;;;17.31;100.00;101493.91;5089124;28;20104;-67
2023/09/28 06:36:47;;;;;;;14.70;5.75;;;;;;;17.31;100.00;101502.97;5085756;28;20427;-66
2023/09/28 06:39:40;;;;;;;11.70;5.53;;;;;;;17.31;100.00;101508.50;5076981;28;20139;-67
2023/09/28 06:42:28;;;;;;;15.65;6.38;;;;;;;17.31;100.00;101508.50;5076580;28;20075;-67
2023/09/28 06:45:25;;;;;;;11.93;5.38;;;;;;;17.32;100.00;101507.41;5077485;28;20055;-66
2023/09/28 06:48:13;;;;;;;13.00;5.70;;;;;;;17.31;100.00;101508.50;5091369;28;20123;-66
2023/09/28 06:51:07;;;;;;;12.25;5.60;;;;;;;17.30;100.00;101504.13;5078129;28;20048;-67
2023/09/28 06:53:55;;;;;;;15.35;5.63;;;;;;;17.31;100.00;101508.50;5090790;28;20133;-67
2023/09/28 06:56:47;;;;;;;14.57;5.57;;;;;;;17.32;100.00;101515.66;5087982;28;20137;-67
2023/09/28 06:59:35;;;;;;;14.80;5.93;;;;;;;17.32;100.00;101515.66;5090512;28;20054;-67
2023/09/28 07:02:23;;;;;;;14.75;5.82;;;;;;;17.37;100.00;101532.13;5075514;28;20524;-67
2023/09/28 07:05:13;;;;;;;13.90;5.88;;;;;;;17.37;100.00;101534.88;5086600;28;20408;-66
2023/09/28 07:08:05;;;;;;;14.15;5.43;;;;;;;17.37;100.00;101528.53;5081169;28;20055;-65
2023/09/28 07:10:53;;;;;;;15.93;6.25;;;;;;;17.36;100.00;101544.22;5090720;28;20052;-67
2023/09/28 07:13:41;;;;;;;15.45;6.00;;;;;;;17.36;100.00;101551.69;5090138;28;20040;-66
2023/09/28 07:16:29;;;;;;;16.15;6.32;;;;;;;17.34;100.00;101557.50;5078907;28;20071;-66
2023/09/28 07:19:18;;;;;;;16.48;5.88;;;;;;;17.35;100.00;101547.31;5076221;28;20047;-66
2023/09/28 07:22:07;;;;;;;16.13;5.97;;;;;;;17.35;100.00;101561.06;5077858;28;20067;-66
2023/09/28 07:24:56;;;;;;;19.95;5.40;;;;;;;17.33;100.00;101550.34;5059358;28;20072;-66
2023/09/28 07:27:45;;;;;;;20.63;6.07;;;;;;;17.35;100.00;101536.28;5076233;28;20049;-66
2023/09/28 07:30:35;;;;;;;15.57;4.88;;;;;;;17.38;100.00;101524.66;5079406;28;20082;-67
2023/09/28 07:33:23;;;;;;;16.55;5.60;;;;;;;17.41;100.00;101543.34;5093175;28;20047;-67
2023/09/28 07:36:12;;;;;;;16.08;5.68;;;;;;;17.41;100.00;101535.06;5092562;28;20109;-66
2023/09/28 07:39:01;;;;;;;21.90;6.35;;;;;;;17.46;100.00;101544.09;5058971;28;20044;-66
2023/09/28 07:41:51;;;;;;;20.95;6.00;;;;;;;17.45;100.00;101553.47;5059129;28;20457;-66
2023/09/28 07:44:40;;;;;;;21.08;5.63;;;;;;;17.43;100.00;101557.66;5084401;28;20411;-66
2023/09/28 07:47:28;;;;;;;20.83;5.95;;;;;;;17.52;100.00;101577.91;5089592;28;20048;-65
2023/09/28 07:50:17;;;;;;;20.65;6.22;;;;;;;17.54;100.00;101577.63;5059154;28;20083;-65
2023/09/28 07:53:05;;;;;;;22.23;6.22;;;;;;;17.54;100.00;101572.13;5076653;28;20040;-65
2023/09/28 07:55:54;;;;;;;25.98;6.75;;;;;;;17.57;100.00;101588.06;5091187;28;20048;-67
2023/09/28 07:58:42;;;;;;;18.75;5.32;;;;;;;17.54;100.00;101581.19;5093421;28;20048;-66
2023/09/28 08:01:35;;;;;;;20.75;5.40;;;;;;;17.55;100.00;101588.34;5077745;28;20275;-66
2023/09/28 08:04:23;;;;;;;21.45;6.40;;;;;;;17.57;100.00;101599.88;5091667;28;20044;-66
2023/09/28 08:07:11;;;;;;;25.48;6.47;;;;;;;17.58;100.00;101601.53;5078228;28;20509;-66
2023/09/28 08:10:00;;;;;;;21.67;5.78;;;;;;;17.56;100.00;101602.94;5064989;28;20437;-64
2023/09/28 08:12:48;;;;;;;25.20;6.25;;;;;;;17.54;100.00;101605.19;5090077;28;20082;-66
2023/09/28 08:15:36;;;;;;;27.50;6.00;;;;;;;17.58;100.00;101600.69;5089965;28;20593;-67
2023/09/28 08:18:26;;;;;;;24.55;5.82;;;;;;;17.60;100.00;101601.22;4738109;28;10000458;-66
2023/09/28 08:21:14;;;;;;;25.75;6.28;;;;;;;17.55;100.00;101606.81;5088906;28;20044;-66
2023/09/28 08:24:03;;;;;;;20.05;5.55;;;;;;;17.57;100.00;101604.59;5087032;28;20044;-65
2023/09/28 08:26:51;;;;;;;24.40;6.20;;;;;;;17.64;100.00;101610.56;5073911;28;20133;-66
2023/09/28 08:29:39;;;;;;;22.60;5.80;;;;;;;17.72;100.00;101598.03;5088564;28;20423;-66
2023/09/28 08:32:27;;;;;;;22.60;6.32;;;;;;;17.71;100.00;101604.69;5073704;28;20588;-65
2023/09/28 08:35:15;;;;;;;28.48;5.95;;;;;;;17.69;100.00;101599.44;5088013;28;20071;-65
2023/09/28 08:38:05;;;;;;;26.33;5.72;;;;;;;17.68;100.00;101606.91;5089551;28;20496;-65
2023/09/28 08:40:59;;;;;;;27.02;6.40;;;;;;;17.64;100.00;101618.81;5088752;28;20547;-66
2023/09/28 08:43:54;;;;;;;26.55;6.07;;;;;;;17.64;100.00;101602.28;5074011;28;20487;-65
2023/09/28 08:46:43;;;;;;;26.30;6.22;;;;;;;17.70;100.00;101614.03;5086076;28;20043;-67
2023/09/28 08:49:35;;;;;;;27.15;6.20;;;;;;;17.80;100.00;101614.78;5075111;28;20040;-65
2023/09/28 08:52:23;;;;;;;28.35;6.53;;;;;;;17.78;100.00;101628.00;5073502;28;20040;-65
2023/09/28 08:55:12;;;;;;;27.60;7.25;;;;;;;17.82;100.00;101651.13;5085253;28;20123;-64
2023/09/28 08:58:01;;;;;;;42.28;7.10;;;;;;;17.83;100.00;101647.25;5089128;28;20556;-65
2023/09/28 09:00:49;;;;;;;27.35;6.28;;;;;;;17.83;100.00;101641.72;5065161;28;20048;-65
2023/09/28 09:03:38;;;;;;;22.42;6.15;;;;;;;17.93;100.00;101640.78;5083428;28;20048;-65
2023/09/28 09:06:31;;;;;;;31.40;7.22;;;;;;;18.06;100.00;101636.44;5072433;28;20072;-65
2023/09/28 09:09:20;;;;;;;33.40;6.63;;;;;;;18.05;100.00;101643.09;5074010;28;20457;-65
2023/09/28 09:12:10;;;;;;;29.50;7.10;;;;;;;17.99;100.00;101644.25;5076318;28;20048;-65
2023/09/28 09:14:58;;;;;;;29.20;6.25;;;;;;;17.93;100.00;101640.78;5062481;28;20514;-65
2023/09/28 09:17:46;;;;;;;29.02;5.72;;;;;;;17.86;100.00;101641.13;5090677;28;20086;-64
2023/09/28 09:20:34;;;;;;;27.83;6.00;;;;;;;17.82;100.00;101645.63;5081432;28;20510;-65
2023/09/28 09:23:24;;;;;;;31.83;7.28;;;;;;;17.78;100.00;101647.28;5092433;28;20035;-65
2023/09/28 09:26:19;;;;;;;30.60;6.97;;;;;;;17.76;100.00;101651.47;5079611;28;20048;-63
2023/09/28 09:29:07;;;;;;;28.50;6.72;;;;;;;17.80;100.00;101655.28;5095749;28;20131;-65
2023/09/28 09:31:56;;;;;;;29.17;6.50;;;;;;;17.86;100.00;101654.91;5095435;28;20036;-64
2023/09/28 09:34:44;;;;;;;20.00;5.07;;;;;;;17.91;100.00;101640.25;5096438;28;20185;-65
2023/09/28 09:37:32;;;;;;;23.15;6.05;;;;;;;17.95;100.00;101654.28;5096674;28;20055;-66
2023/09/28 09:40:21;;;;;;;18.30;5.68;;;;;;;18.00;100.00;101655.00;5095896;28;20500;-66
2023/09/28 09:43:10;;;;;;;30.50;7.22;;;;;;;18.02;100.00;101663.00;5087590;28;20161;-66
2023/09/28 09:45:58;;;;;;;28.48;6.75;;;;;;;18.05;100.00;101660.44;5094661;28;20040;-65
2023/09/28 09:48:46;;;;;;;31.50;6.57;;;;;;;18.06;100.00;101662.09;5066633;28;20040;-66
2023/09/28 09:51:35;;;;;;;25.35;6.43;;;;;;;18.04;100.00;101658.00;5094259;28;20491;-65
2023/09/28 09:54:23;;;;;;;26.30;6.22;;;;;;;18.00;100.00;101656.94;5094756;28;20512;-65
2023/09/28 09:57:17;;;;;;;24.17;6.50;;;;;;;17.99;100.00;101661.66;5080285;28;20036;-65
2023/09/28 10:00:09;;;;;;;21.58;5.70;;;;;;;17.99;100.00;101658.91;5094865;28;20080;-66
2023/09/28 10:03:00;;;;;;;27.23;6.50;;;;;;;17.99;100.00;101644.25;5072726;28;20504;-66
2023/09/28 10:05:48;;;;;;;26.02;6.10;;;;;;;18.04;100.00;101656.06;5093658;28;20036;-65
2023/09/28 10:08:36;;;;;;;20.73;6.00;;;;;;;18.19;100.00;101660.53;5066147;28;20044;-65
2023/09/28 10:11:25;;;;;;;26.75;6.53;;;;;;;18.30;100.00;101656.50;5099431;28;20051;-63
2023/09/28 10:14:16;;;;;;;22.98;6.03;;;;;;;18.31;100.00;101655.38;5099302;28;20115;-64
2023/09/28 10:17:04;;;;;;;28.67;6.13;;;;;;;18.35;97.97;101649.25;5080467;28;20056;-66
2023/09/28 10:19:56;;;;;;;31.73;6.82;;;;;;;18.39;98.24;101647.53;5080131;28;20040;-66
2023/09/28 10:22:45;;;;;;;25.00;7.43;;;;;;;18.39;97.34;101642.00;5094285;28;20106;-66
2023/09/28 10:25:53;;;;;;;50.63;18.77;;;;;;;18.45;99.93;101627.03;5078363;28;20051;-65
2023/09/28 10:29:06;;;;;;;36.45;11.63;;;;;;;18.53;98.60;101629.06;5064832;28;20608;-64
2023/09/28 10:31:55;;;;;;;40.72;11.63;;;;;;;18.53;97.24;101618.84;5074390;28;20036;-64
2023/09/28 10:34:46;;;;;;;24.33;5.68;;;;;;;18.54;95.66;101616.91;5065500;28;20118;-64
2023/09/28 10:37:34;;;;;;;21.60;6.15;;;;;;;18.56;95.92;101630.41;5079922;28;20602;-65
2023/09/28 10:40:22;;;;;;;29.98;7.10;;;;;;;18.61;96.91;101624.81;5082025;28;20130;-65
2023/09/28 10:43:40;;;;;;;35.95;9.82;;;;;;;18.72;99.08;101629.84;4725581;28;10000727;-66
2023/09/28 10:46:29;;;;;;;26.15;7.35;;;;;;;18.70;95.75;101631.28;5084424;28;20515;-65
2023/09/28 10:49:28;;;;;;;28.70;7.35;;;;;;;18.68;95.18;101637.09;5090525;28;20043;-66
2023/09/28 10:52:18;;;;;;;36.67;14.20;;;;;;;18.74;99.72;101633.13;5089870;28;20075;-66
2023/09/28 10:55:07;;;;;;;28.55;6.55;;;;;;;18.79;96.43;101634.19;5089128;28;20048;-65
2023/09/28 10:57:55;;;;;;;43.92;12.95;;;;;;;18.80;96.21;101638.59;5070629;28;20053;-65
2023/09/28 11:00:44;;;;;;;29.33;6.20;;;;;;;18.80;95.12;101641.34;5070293;28;20052;-65
2023/09/28 11:03:33;;;;;;;25.38;6.25;;;;;;;18.77;94.99;101636.44;5090832;28;20063;-65
2023/09/28 11:06:22;;;;;;;22.90;5.78;;;;;;;18.82;95.48;101650.16;5073430;28;20052;-65
2023/09/28 11:09:15;;;;;;;29.20;9.40;;;;;;;18.92;96.87;101644.44;5075138;28;20044;-66
2023/09/28 11:12:08;;;;;;;35.63;10.15;;;;;;;19.03;98.37;101645.88;5076178;28;20132;-65
2023/09/28 11:14:58;;;;;;;31.27;10.00;;;;;;;19.07;97.37;101657.97;5061532;28;20909;-65
2023/09/28 11:17:47;;;;;;;22.38;7.40;;;;;;;19.04;96.69;101666.03;5074867;28;20063;-66
2023/09/28 11:20:35;;;;;;;31.92;10.48;;;;;;;19.05;98.44;101662.97;5083219;28;20076;-65
2023/09/28 11:23:24;;;;;;;32.00;11.85;;;;;;;19.02;99.13;101660.81;5075079;28;20051;-66
2023/09/28 11:26:14;;;;;;;23.15;6.68;;;;;;;19.01;96.63;101666.66;5075580;28;20048;-65
2023/09/28 11:29:03;;;;;;;21.30;6.05;;;;;;;18.94;94.75;101658.75;5075362;28;20124;-65
2023/09/28 11:31:52;;;;;;;21.38;5.93;;;;;;;18.88;93.86;101671.84;5081557;28;20048;-66
2023/09/28 11:34:41;;;;;;;21.58;5.55;;;;;;;18.85;94.34;101666.09;5075714;28;20148;-65
2023/09/28 11:37:29;;;;;;;21.00;5.15;;;;;;;18.86;94.62;101662.22;5074338;28;20052;-65
2023/09/28 11:40:19;;;;;;;24.05;5.65;;;;;;;18.85;94.31;101655.88;5079228;28;20093;-65
2023/09/28 11:43:11;;;;;;;27.67;5.95;;;;;;;18.86;93.82;101667.75;5079959;28;20587;-65
2023/09/28 11:46:00;;;;;;;22.42;5.80;;;;;;;18.88;94.03;101662.72;5088692;28;20578;-65
2023/09/28 11:49:04;;;;;;;23.85;8.75;;;;;;;18.97;97.03;101669.19;5074360;28;20047;-65
2023/09/28 11:51:53;;;;;;;22.05;5.53;;;;;;;18.99;93.97;101657.84;5074335;28;20036;-64
2023/09/28 11:54:41;;;;;;;20.75;5.45;;;;;;;18.99;93.72;101655.91;5074012;28;20467;-67
2023/09/28 11:57:32;;;;;;;19.30;5.57;;;;;;;19.03;94.51;101640.38;5089550;28;20105;-64
2023/09/28 12:00:21;;;;;;;21.42;5.05;;;;;;;19.00;94.04;101649.25;5089504;28;20500;-66
2023/09/28 12:03:09;;;;;;;22.48;4.90;;;;;;;19.00;94.03;101652.03;5089415;28;20087;-66
2023/09/28 12:05:57;;;;;;;23.38;5.22;;;;;;;19.01;94.53;101650.88;5088060;28;20067;-65
2023/09/28 12:08:45;;;;;;;24.98;4.90;;;;;;;19.00;94.56;101649.25;4726155;28;10000082;-65
2023/09/28 12:11:37;;;;;;;23.33;5.45;;;;;;;19.04;93.83;101650.28;5090729;28;20036;-64
2023/09/28 12:14:26;;;;;;;18.48;4.82;;;;;;;19.07;93.69;101644.16;5076413;28;20072;-64
2023/09/28 12:17:14;;;;;;;19.30;4.65;;;;;;;19.09;93.40;101638.31;5091122;28;20055;-63
2023/09/28 12:20:03;;;;;;;22.52;4.72;;;;;;;19.15;94.26;101632.38;5091963;28;20040;-63
2023/09/28 12:22:52;;;;;;;25.17;5.78;;;;;;;19.23;93.96;101643.84;5092111;28;20061;-65
2023/09/28 12:25:40;;;;;;;23.48;5.40;;;;;;;19.29;92.94;101642.59;5077378;28;20125;-63
2023/09/28 12:28:28;;;;;;;26.50;5.60;;;;;;;19.30;90.98;101645.06;5091504;28;20075;-62
2023/09/28 12:31:17;;;;;;;17.95;4.72;;;;;;;19.29;90.73;101631.56;5077904;28;20047;-60
2023/09/28 12:34:05;;;;;;;19.40;4.70;;;;;;;19.33;90.84;101633.41;5092539;28;20082;-64
2023/09/28 12:36:57;;;;;;;15.52;4.47;;;;;;;19.41;93.25;101633.81;5064489;28;20036;-65
2023/09/28 12:39:45;;;;;;;15.32;4.88;;;;;;;19.45;92.36;101629.31;5092518;28;20174;-64
2023/09/28 12:42:34;;;;;;;16.05;4.45;;;;;;;19.46;89.38;101633.69;5091947;28;20117;-65
2023/09/28 12:45:23;;;;;;;17.15;4.50;;;;;;;19.45;90.42;101635.66;5092821;28;20177;-64
2023/09/28 12:48:17;;;;;;;15.07;4.88;;;;;;;19.44;90.85;101650.59;5078412;28;20046;-65
2023/09/28 12:51:05;;;;;;;15.68;4.80;;;;;;;19.47;92.08;101632.59;5092727;28;20051;-64
2023/09/28 12:53:53;;;;;;;15.98;4.93;;;;;;;19.50;90.77;101620.91;5092430;28;20052;-64
2023/09/28 12:56:42;;;;;;;15.95;4.30;;;;;;;19.52;90.82;101616.69;5091948;28;20046;-64
2023/09/28 12:59:32;;;;;;;23.13;5.18;;;;;;;19.53;89.24;101618.34;5064831;28;20054;-64
2023/09/28 13:02:24;;;;;;;18.83;5.28;;;;;;;19.52;87.63;101616.69;5093316;28;20059;-64
2023/09/28 13:05:15;;;;;;;20.67;5.20;;;;;;;19.53;88.31;101611.97;5092702;28;20418;-64